»·PEaware :: N248PT KSLC-KBOI

N248PT :: KSLC-KBOI

FLIGHT INFORMATION

Flight Status: Arrived
Operator: Privately registered:
United States
More flights under this callsign
Pilot: Joe C. (32102)
Aircraft: BEECH AIRCRAFT BONANZA
(BE36)
More flights by this aircraft type
Origin: KSLC Salt Lake City Intl
United States
Destination: KBOI Boise Air Terminal/Gowen
United States
More flights between these airports :: More routes between these airports
Route: +
File this flight plan on PilotEdge
Remarks:
Altitude:
(Current/Filed)
5,500ft
Speed:
(Current/Filed)
0kts
Departed: 26-Oct-20 06:44 PM
Arrived: 26-Oct-20 08:04 PM
Distance/Time
Traveled:
252nm/1:20
Distance/Time
To Go:
Arrived

Flight Plot

Page will automatically refresh every two minutes.

Flight plan parsing failed; only flown route is shown


Map Options




Map Legend


Flown Route
Filed Route
Departure Airport
Arrival Airport
Navaid (VOR, NDB)
Fix

Horizontal Profiles

Position Reports

Time Latitude Longitude Heading Altitude Ground
Speed
26-Oct-20 18:42 40.698090 -112.101420 329 5583ft 186kts
26-Oct-20 18:43 40.741121 -112.140036 318 5411ft 187kts
26-Oct-20 18:44 40.776698 -112.190128 310 5315ft 186kts
26-Oct-20 18:45 40.808857 -112.241897 310 5621ft 177kts
26-Oct-20 18:46 40.841327 -112.291613 313 6265ft 180kts
26-Oct-20 18:47 40.876706 -112.339251 311 6892ft 182kts
26-Oct-20 18:48 40.910856 -112.389010 314 7498ft 186kts
26-Oct-20 18:49 40.947891 -112.436706 317 8020ft 188kts
26-Oct-20 18:50 40.986453 -112.480241 319 8867ft 179kts
26-Oct-20 18:51 41.023223 -112.525742 316 9596ft 183kts
26-Oct-20 18:52 41.062222 -112.569690 327 10316ft 183kts
26-Oct-20 18:53 41.103228 -112.611759 324 11161ft 186kts
26-Oct-20 18:54 41.144335 -112.655270 316 12212ft 188kts
26-Oct-20 18:55 41.186244 -112.702518 316 12465ft 212kts
26-Oct-20 18:56 41.231316 -112.752572 316 12425ft 208kts
26-Oct-20 18:57 41.275516 -112.801755 314 12530ft 207kts
26-Oct-20 18:58 41.318636 -112.853077 314 12529ft 208kts
26-Oct-20 18:59 41.361181 -112.903656 312 12529ft 199kts
26-Oct-20 19:00 41.400186 -112.954862 311 12529ft 195kts
26-Oct-20 19:01 41.438899 -113.005642 311 12529ft 195kts
26-Oct-20 19:02 41.477586 -113.056509 311 12528ft 195kts
26-Oct-20 19:03 41.516233 -113.107688 311 12525ft 195kts
26-Oct-20 19:04 41.554838 -113.158699 311 12524ft 194kts
26-Oct-20 19:05 41.593124 -113.210166 307 12528ft 195kts
26-Oct-20 19:06 41.628203 -113.265668 306 12529ft 195kts
26-Oct-20 19:07 41.665789 -113.318524 312 12525ft 196kts
26-Oct-20 19:08 41.704727 -113.369805 312 12501ft 196kts
26-Oct-20 19:09 41.743753 -113.421195 312 12502ft 196kts
26-Oct-20 19:10 41.782610 -113.472412 312 12501ft 197kts
26-Oct-20 19:11 41.821638 -113.523857 312 12499ft 196kts
26-Oct-20 19:12 41.860616 -113.575209 312 12516ft 198kts
26-Oct-20 19:13 41.900440 -113.627752 312 12475ft 199kts
26-Oct-20 19:14 41.939567 -113.679263 312 12470ft 194kts
26-Oct-20 19:15 41.978408 -113.730352 312 12492ft 197kts
26-Oct-20 19:16 42.017857 -113.782221 312 12478ft 197kts
26-Oct-20 19:17 42.056989 -113.833917 312 12479ft 195kts
26-Oct-20 19:18 42.095127 -113.885636 312 12513ft 195kts
26-Oct-20 19:19 42.133706 -113.937949 312 12515ft 198kts
26-Oct-20 19:20 42.172253 -113.990262 312 12513ft 196kts
26-Oct-20 19:21 42.210501 -114.042168 312 12506ft 195kts
26-Oct-20 19:22 42.248937 -114.094139 312 12510ft 195kts
26-Oct-20 19:23 42.287423 -114.145841 312 12515ft 195kts
26-Oct-20 19:24 42.326122 -114.197890 312 12515ft 196kts
26-Oct-20 19:25 42.364323 -114.250880 310 12509ft 196kts
26-Oct-20 19:26 42.401584 -114.304736 310 12509ft 195kts
26-Oct-20 19:27 42.438777 -114.358521 310 12509ft 195kts
26-Oct-20 19:28 42.475864 -114.412023 310 12509ft 195kts
26-Oct-20 19:29 42.513010 -114.465570 310 12509ft 195kts
26-Oct-20 19:30 42.549993 -114.519468 308 12510ft 194kts
26-Oct-20 19:31 42.585759 -114.574865 308 12510ft 194kts
26-Oct-20 19:32 42.621499 -114.630190 308 12510ft 194kts
26-Oct-20 19:33 42.657296 -114.685554 308 12508ft 195kts
26-Oct-20 19:34 42.693072 -114.740950 308 12511ft 195kts
26-Oct-20 19:35 42.728845 -114.796285 308 12510ft 195kts
26-Oct-20 19:36 42.764759 -114.851761 308 12510ft 195kts
26-Oct-20 19:37 42.800589 -114.907095 308 12510ft 195kts
26-Oct-20 19:38 42.836523 -114.962478 308 12509ft 195kts
26-Oct-20 19:39 42.872479 -115.017911 308 12507ft 194kts
26-Oct-20 19:40 42.908440 -115.073356 308 12513ft 195kts
26-Oct-20 19:41 42.944447 -115.128747 309 12510ft 195kts
26-Oct-20 19:42 42.980946 -115.185352 309 12257ft 203kts
26-Oct-20 19:43 43.017777 -115.243958 309 11855ft 204kts
26-Oct-20 19:44 43.054715 -115.302625 309 11452ft 202kts
26-Oct-20 19:45 43.091368 -115.360817 309 11055ft 201kts
26-Oct-20 19:46 43.127870 -115.418744 309 10666ft 200kts
26-Oct-20 19:47 43.164051 -115.475774 309 10278ft 196kts
26-Oct-20 19:48 43.199964 -115.531506 309 9885ft 194kts
26-Oct-20 19:49 43.236339 -115.588161 309 9513ft 201kts
26-Oct-20 19:50 43.273245 -115.647062 309 9101ft 205kts
26-Oct-20 19:51 43.308925 -115.708243 309 8675ft 204kts
26-Oct-20 19:53 43.343301 -115.768576 309 8464ft 196kts
26-Oct-20 19:54 43.377642 -115.828759 309 8022ft 202kts
26-Oct-20 19:55 43.409891 -115.892137 303 7521ft 202kts
26-Oct-20 19:56 43.440318 -115.958392 303 6932ft 209kts
26-Oct-20 19:57 43.471326 -116.025709 303 6226ft 207kts
26-Oct-20 19:58 43.502129 -116.093213 301 5387ft 209kts
26-Oct-20 19:59 43.526567 -116.164368 288 4626ft 208kts
26-Oct-20 20:00 43.544230 -116.232227 292 4034ft 165kts
26-Oct-20 20:01 43.561544 -116.279898 327 3830ft 106kts
26-Oct-20 20:02 43.576047 -116.260115 115 3177ft 84kts
26-Oct-20 20:03 43.567137 -116.233986 117 2836ft 52kts
26-Oct-20 20:04 43.563231 -116.226449 288 2845ft 17kts
26-Oct-20 20:05 43.564831 -116.233381 95 2838ft 0kts
26-Oct-20 20:06 43.564838 -116.233356 43 2838ft 0kts
26-Oct-20 20:07 43.564838 -116.233356 43 2838ft 0kts
26-Oct-20 20:08 43.564838 -116.233356 43 2838ft 0kts

Navigation Log

Ident Type
Flight plan parsing failed, navigation log unavailable